createdAt,value
2019-03-18T00:00:01.154Z,0.6
2019-03-18T00:01:01.125Z,0.5
2019-03-18T00:03:01.221Z,0.4
2019-03-18T00:04:01.241Z,0.3
2019-03-18T00:06:06.117Z,0.2
2019-03-18T00:10:01.097Z,0.1
2019-03-18T00:31:01.096Z,0.1
2019-03-18T00:45:13.718Z,0.1
2019-03-18T01:00:01.264Z,0.1
2019-03-18T04:37:01.359Z,0.1
2019-03-18T04:39:01.060Z,0.2
2019-03-18T04:40:06.062Z,0.3
2019-03-18T04:42:02.200Z,0.4
2019-03-18T04:43:01.089Z,0.5
2019-03-18T04:44:01.097Z,0.7
2019-03-18T04:45:01.126Z,0.8
2019-03-18T04:46:01.134Z,0.9
2019-03-18T04:47:13.317Z,1.1
2019-03-18T04:48:01.095Z,1.3
2019-03-18T04:49:01.099Z,1.6
2019-03-18T04:50:01.135Z,1.9
2019-03-18T04:51:01.061Z,2.3
2019-03-18T04:52:01.252Z,2.8
2019-03-18T04:53:01.067Z,3.3
2019-03-18T04:54:01.061Z,3.9
2019-03-18T04:55:01.147Z,4.7
2019-03-18T04:56:01.070Z,5.6
2019-03-18T04:57:01.445Z,6.7
2019-03-18T04:58:01.102Z,8.1
2019-03-18T04:59:01.102Z,9.7
2019-03-18T05:00:01.100Z,11.5
2019-03-18T05:01:01.094Z,13.7
2019-03-18T05:02:01.221Z,15.9
2019-03-18T05:03:01.097Z,18.3
2019-03-18T05:04:01.065Z,20.9
2019-03-18T05:05:01.127Z,24.5
2019-03-18T05:06:01.062Z,29.0
2019-03-18T05:07:01.244Z,34.4
2019-03-18T05:08:02.213Z,40.8
2019-03-18T05:09:01.065Z,48.4
2019-03-18T05:10:01.129Z,57.2
2019-03-18T05:11:01.094Z,67.8
2019-03-18T05:12:01.503Z,80.8
2019-03-18T05:13:01.097Z,96.5
2019-03-18T05:14:01.100Z,114.5
2019-03-18T05:15:01.137Z,135.2
2019-03-18T05:16:01.070Z,159.7
2019-03-18T05:17:01.226Z,189.3
2019-03-18T05:18:01.171Z,224.2
2019-03-18T05:19:01.167Z,264.5
2019-03-18T05:20:01.148Z,309.6
2019-03-18T05:21:01.101Z,361.7
2019-03-18T05:22:01.226Z,419.4
2019-03-18T05:23:01.128Z,483.9
2019-03-18T05:24:01.068Z,553.7
2019-03-18T05:25:01.122Z,635.4
2019-03-18T05:26:01.108Z,731.1
2019-03-18T05:27:01.216Z,834.9
2019-03-18T05:28:01.631Z,935.9
2019-03-18T05:29:01.104Z,1028.7
2019-03-18T05:30:01.314Z,1098.9
2019-03-18T05:31:01.108Z,1151.1
2019-03-18T05:32:01.281Z,1193.1
2019-03-18T05:33:01.112Z,1257.1
2019-03-18T05:34:01.105Z,1365.0
2019-03-18T05:35:01.146Z,1500.9
2019-03-18T05:36:01.075Z,1649.7
2019-03-18T05:37:01.264Z,1802.4
2019-03-18T05:38:01.114Z,1944.5
2019-03-18T05:39:01.111Z,2055.6
2019-03-18T05:40:01.104Z,2173.0
2019-03-18T05:41:01.170Z,2323.7
2019-03-18T05:42:01.509Z,2503.2
2019-03-18T05:43:01.112Z,2728.5
2019-03-18T05:45:01.086Z,3034.5
2019-03-18T05:46:01.112Z,3395.8
2019-03-18T05:47:01.431Z,3796.5
2019-03-18T05:48:01.095Z,4217.8
2019-03-18T05:49:01.091Z,4623.5
2019-03-18T05:50:01.122Z,4996.1
2019-03-18T05:51:01.094Z,5309.6
2019-03-18T05:52:01.248Z,5638.7
2019-03-18T05:53:01.100Z,5965.7
2019-03-18T05:54:01.097Z,6328.5
2019-03-18T05:55:01.101Z,6781.8
2019-03-18T05:56:01.287Z,7294.8
2019-03-18T05:57:01.372Z,7845.1
2019-03-18T05:58:01.101Z,8426.2
2019-03-18T05:59:01.093Z,8910.7
2019-03-18T06:00:02.273Z,9319.6
2019-03-18T06:01:01.099Z,9766.0
2019-03-18T06:02:01.238Z,10204.1
2019-03-18T06:03:01.097Z,10703.8
2019-03-18T06:04:01.092Z,11261.9
2019-03-18T06:05:01.067Z,11806.5
2019-03-18T06:06:01.100Z,12397.4
2019-03-18T06:07:01.252Z,13040.5
2019-03-18T06:08:01.166Z,13944.1
2019-03-18T06:09:01.104Z,15081.9
2019-03-18T06:10:01.099Z,15955.8
2019-03-18T06:11:01.130Z,16660.3
2019-03-18T06:12:03.775Z,17206.9
2019-03-18T06:13:01.103Z,17706.5
2019-03-18T06:14:01.063Z,18267.1
2019-03-18T06:15:01.096Z,18765.1
2019-03-18T06:16:01.129Z,19212.3
2019-03-18T06:17:01.249Z,19623.6
2019-03-18T06:18:01.105Z,20037.9
2019-03-18T06:19:01.096Z,20614.0
2019-03-18T06:20:01.102Z,21561.1
2019-03-18T06:21:01.096Z,22501.5
2019-03-18T06:22:01.245Z,23098.4
2019-03-18T06:23:01.110Z,23352.2
2019-03-18T06:24:01.102Z,23389.9
2019-03-18T06:25:01.100Z,23630.3
2019-03-18T06:26:01.135Z,23899.3
2019-03-18T06:27:01.243Z,24185.2
2019-03-18T06:28:01.098Z,24603.5
2019-03-18T06:29:01.096Z,25325.0
2019-03-18T06:30:01.105Z,26323.7
2019-03-18T06:31:01.135Z,27069.0
2019-03-18T06:32:01.268Z,28030.9
2019-03-18T06:33:01.106Z,28649.7
2019-03-18T06:34:01.108Z,29331.3
2019-03-18T06:35:01.108Z,29207.7
2019-03-18T06:36:01.141Z,28552.8
2019-03-18T06:37:01.273Z,28244.5
2019-03-18T06:38:01.108Z,28333.9
2019-03-18T06:39:01.106Z,28743.5
2019-03-18T06:40:01.110Z,29116.9
2019-03-18T06:41:01.143Z,29353.1
2019-03-18T06:42:01.316Z,30000.5
2019-03-18T06:43:01.111Z,31103.5
2019-03-18T06:44:01.105Z,31266.3
2019-03-18T06:45:01.106Z,31067.3
2019-03-18T06:46:01.143Z,32100.4
2019-03-18T06:47:01.250Z,32474.4
2019-03-18T06:49:01.089Z,33236.1
2019-03-18T06:50:01.104Z,33557.1
2019-03-18T06:51:01.087Z,33641.5
2019-03-18T06:52:01.087Z,34399.4
2019-03-18T06:53:01.252Z,36230.8
2019-03-18T06:54:01.060Z,38143.8
2019-03-18T06:55:01.092Z,38842.5
2019-03-18T06:56:01.125Z,40119.7
2019-03-18T06:57:01.096Z,42557.1
2019-03-18T06:58:01.217Z,44169.9
2019-03-18T06:59:01.106Z,44704.1
2019-03-18T07:00:01.104Z,46178.0
2019-03-18T07:01:06.106Z,47761.9
2019-03-18T07:02:01.100Z,47294.7
2019-03-18T07:03:01.256Z,46627.3
2019-03-18T07:04:01.074Z,46483.1
2019-03-18T07:05:01.105Z,47023.4
2019-03-18T07:06:06.106Z,47466.4
2019-03-18T07:07:01.184Z,47243.1
2019-03-18T07:08:03.211Z,45989.0
2019-03-18T07:09:01.102Z,45011.9
2019-03-18T07:10:01.077Z,44703.5
2019-03-18T07:11:01.133Z,43801.1
2019-03-18T07:12:01.068Z,41767.6
2019-03-18T07:13:01.259Z,40446.0
2019-03-18T07:14:01.104Z,40025.8
2019-03-18T07:15:01.110Z,39914.9
2019-03-18T07:16:01.128Z,39981.3
2019-03-18T07:17:01.104Z,40793.2
2019-03-18T07:18:01.242Z,40949.6
2019-03-18T07:19:01.096Z,39683.3
2019-03-18T07:20:01.097Z,37743.1
2019-03-18T07:21:01.173Z,36948.9
2019-03-18T07:22:01.100Z,37184.3
2019-03-18T07:23:01.260Z,37118.2
2019-03-18T07:24:01.101Z,36395.1
2019-03-18T07:25:01.101Z,35373.4
2019-03-18T07:26:06.108Z,33946.6
2019-03-18T07:27:01.103Z,32858.1
2019-03-18T07:28:01.261Z,31774.1
2019-03-18T07:29:01.103Z,30749.9
2019-03-18T07:30:01.109Z,28705.3
2019-03-18T07:31:06.120Z,26457.0
2019-03-18T07:32:01.109Z,24793.1
2019-03-18T07:33:01.284Z,24597.8
2019-03-18T07:34:01.110Z,25245.6
2019-03-18T07:35:01.101Z,25866.7
2019-03-18T07:36:06.111Z,26468.1
2019-03-18T07:37:01.111Z,26344.9
2019-03-18T07:38:01.322Z,26912.3
2019-03-18T07:39:01.106Z,28079.9
2019-03-18T07:40:01.111Z,30588.3
2019-03-18T07:41:06.079Z,33220.6
2019-03-18T07:42:01.104Z,36252.5
2019-03-18T07:43:01.326Z,38893.8
2019-03-18T07:44:01.116Z,40679.3
2019-03-18T07:45:01.104Z,43457.1
2019-03-18T07:46:01.143Z,46298.7
2019-03-18T07:47:01.109Z,48167.4
2019-03-18T07:48:01.331Z,50158.8
2019-03-18T07:50:01.644Z,52500.7
2019-03-18T07:51:01.093Z,54578.1
2019-03-18T07:52:01.089Z,55964.3
2019-03-18T07:53:01.090Z,57647.1
2019-03-18T07:54:01.250Z,58605.0
2019-03-18T07:55:01.161Z,59277.8
2019-03-18T07:56:01.092Z,58711.3
2019-03-18T07:57:01.122Z,57903.1
2019-03-18T07:58:01.102Z,57951.9
2019-03-18T07:59:01.240Z,58184.5
2019-03-18T08:00:01.101Z,58778.5
2019-03-18T08:01:01.233Z,58387.2
2019-03-18T08:03:03.386Z,59080.8
2019-03-18T08:04:01.247Z,59499.7
2019-03-18T08:06:01.098Z,59926.2
2019-03-18T08:07:06.106Z,60682.6
2019-03-18T08:08:01.105Z,61347.1
2019-03-18T08:09:01.247Z,62212.9
2019-03-18T08:10:01.103Z,62738.7
2019-03-18T08:11:01.106Z,63635.7
2019-03-18T08:12:01.098Z,65102.3
2019-03-18T08:13:01.100Z,65143.7
2019-03-18T08:15:01.354Z,64811.7
2019-03-18T08:16:01.094Z,65203.0
2019-03-18T08:17:01.133Z,65001.3
2019-03-18T08:22:01.129Z,64833.3
2019-03-18T08:24:01.239Z,64573.7
2019-03-18T08:25:01.099Z,63157.9
2019-03-18T08:26:01.251Z,61250.9
2019-03-18T08:27:01.153Z,59182.4
2019-03-18T08:28:01.109Z,56557.8
2019-03-18T08:29:01.100Z,54544.3
2019-03-18T08:30:01.105Z,52971.9
2019-03-18T08:31:01.270Z,51690.2
2019-03-18T08:32:02.372Z,50096.4
2019-03-18T08:33:01.111Z,47704.1
2019-03-18T08:34:01.107Z,45912.7
2019-03-18T08:35:01.104Z,45053.3
2019-03-18T08:37:01.276Z,45221.3
2019-03-18T08:39:06.114Z,45480.9
2019-03-18T08:40:01.112Z,46896.7
2019-03-18T08:41:01.121Z,48803.7
2019-03-18T08:43:01.380Z,50872.2
2019-03-18T08:44:06.111Z,53496.8
2019-03-18T08:45:01.065Z,55510.3
2019-03-18T08:46:01.097Z,57414.7
2019-03-18T08:47:01.098Z,58696.4
2019-03-18T08:48:01.246Z,60491.9
2019-03-18T08:49:06.134Z,62884.1
2019-03-18T08:50:01.099Z,64675.6
2019-03-18T08:51:01.104Z,65535.0
2019-03-18T08:57:01.385Z,65046.7
2019-03-18T08:58:01.110Z,63042.3
2019-03-18T08:59:01.138Z,60455.0
2019-03-18T09:00:01.113Z,57481.5
2019-03-18T09:01:01.110Z,54653.1
2019-03-18T09:02:01.253Z,52865.9
2019-03-18T09:13:01.089Z,53354.3
2019-03-18T09:14:01.090Z,55358.7
2019-03-18T09:15:01.136Z,57945.9
2019-03-18T09:16:01.092Z,60919.4
2019-03-18T09:17:01.221Z,63747.9
2019-03-18T09:18:01.071Z,65535.0
2019-03-18T09:30:01.372Z,65535.0
2019-03-18T09:45:01.230Z,65535.0
2019-03-18T10:00:01.106Z,65535.0
2019-03-18T10:15:01.231Z,65535.0
2019-03-18T10:30:01.077Z,65535.0
2019-03-18T10:45:01.238Z,65535.0
2019-03-18T11:00:01.695Z,65535.0
2019-03-18T11:15:01.313Z,65535.0
2019-03-18T11:30:01.326Z,65535.0
2019-03-18T11:31:06.104Z,64752.7
2019-03-18T11:32:01.099Z,63304.7
2019-03-18T11:33:01.105Z,62278.5
2019-03-18T11:34:01.095Z,61561.1
2019-03-18T11:35:01.278Z,61102.1
2019-03-18T11:36:01.115Z,60952.7
2019-03-18T11:43:01.094Z,60900.0
2019-03-18T11:45:01.100Z,60900.0
2019-03-18T11:46:01.098Z,61682.3
2019-03-18T11:47:01.247Z,63130.3
2019-03-18T11:48:01.096Z,64156.5
2019-03-18T11:49:01.093Z,64873.9
2019-03-18T11:50:10.210Z,65332.9
2019-03-18T11:51:01.098Z,65129.2
2019-03-18T11:55:01.098Z,65078.7
2019-03-18T11:58:06.122Z,65131.4
2019-03-18T12:00:01.108Z,65131.4
2019-03-18T12:06:01.346Z,65484.5
2019-03-18T12:10:01.142Z,65535.0
2019-03-18T12:15:01.372Z,65535.0
2019-03-18T12:30:01.096Z,65535.0
2019-03-18T12:45:01.160Z,65535.0
2019-03-18T13:00:01.122Z,65535.0
2019-03-18T13:15:01.325Z,65535.0
2019-03-18T13:29:01.114Z,65298.1
2019-03-18T13:30:01.111Z,65030.7
2019-03-18T13:31:06.121Z,64886.8
2019-03-18T13:32:01.322Z,64862.3
2019-03-18T13:33:01.115Z,64394.4
2019-03-18T13:39:01.341Z,64092.6
2019-03-18T13:40:01.108Z,63160.8
2019-03-18T13:41:01.095Z,62236.9
2019-03-18T13:42:01.118Z,61362.9
2019-03-18T13:43:01.098Z,60639.5
2019-03-18T13:44:01.306Z,60564.7
2019-03-18T13:45:01.162Z,60801.6
2019-03-18T13:46:01.094Z,61068.9
2019-03-18T13:47:01.101Z,61212.9
2019-03-18T13:48:01.065Z,61237.4
2019-03-18T13:49:01.244Z,61705.3
2019-03-18T13:54:01.313Z,62007.1
2019-03-18T13:55:01.102Z,62938.9
2019-03-18T13:56:01.069Z,63862.8
2019-03-18T13:57:01.102Z,64736.8
2019-03-18T13:58:06.104Z,64515.6
2019-03-18T13:59:01.245Z,63341.7
2019-03-18T14:00:01.107Z,62883.0
2019-03-18T14:04:02.427Z,62107.1
2019-03-18T14:05:01.099Z,61988.4
2019-03-18T14:14:01.252Z,62932.9
2019-03-18T14:15:01.094Z,64181.7
2019-03-18T14:16:01.095Z,64640.4
2019-03-18T14:19:01.386Z,65416.3
2019-03-18T14:20:01.327Z,65535.0
2019-03-18T14:30:01.447Z,65535.0
2019-03-18T14:45:01.108Z,65535.0
2019-03-18T14:53:01.305Z,65438.0
2019-03-18T14:55:01.096Z,64737.0
2019-03-18T14:59:01.161Z,64707.9
2019-03-18T15:00:01.105Z,64707.9
2019-03-18T15:06:01.102Z,64295.0
2019-03-18T15:07:01.105Z,63603.9
2019-03-18T15:08:01.363Z,62585.7
2019-03-18T15:09:06.118Z,61272.9
2019-03-18T15:10:01.109Z,60769.3
2019-03-18T15:11:01.099Z,59607.1
2019-03-18T15:12:01.101Z,58295.2
2019-03-18T15:13:01.260Z,57003.6
2019-03-18T15:14:01.717Z,56215.1
2019-03-18T15:15:01.107Z,55691.7
2019-03-18T15:16:01.111Z,54953.8
2019-03-18T15:17:01.105Z,53932.3
2019-03-18T15:18:01.289Z,52522.5
2019-03-18T15:19:01.110Z,51003.1
2019-03-18T15:20:01.080Z,49561.6
2019-03-18T15:21:01.108Z,48566.3
2019-03-18T15:22:01.107Z,48062.0
2019-03-18T15:23:01.276Z,47845.1
2019-03-18T15:24:01.107Z,47594.9
2019-03-18T15:25:01.111Z,47450.6
2019-03-18T15:26:01.113Z,46903.7
2019-03-18T15:27:01.075Z,46635.5
2019-03-18T15:28:01.290Z,46156.9
2019-03-18T15:29:01.085Z,45010.2
2019-03-18T15:31:01.094Z,43537.3
2019-03-18T15:32:01.064Z,42394.3
2019-03-18T15:33:01.265Z,41747.8
2019-03-18T15:34:01.095Z,42136.3
2019-03-18T15:35:01.102Z,43345.9
2019-03-18T15:36:01.097Z,44787.4
2019-03-18T15:37:01.107Z,46195.6
2019-03-18T15:38:01.242Z,47391.1
2019-03-18T15:39:01.100Z,48360.8
2019-03-18T15:40:01.098Z,49143.1
2019-03-18T15:41:01.094Z,49573.3
2019-03-18T15:42:01.097Z,50236.3
2019-03-18T15:43:01.244Z,50327.3
2019-03-18T15:44:01.103Z,50459.9
2019-03-18T15:45:02.905Z,50737.5
2019-03-18T15:46:01.095Z,51280.0
2019-03-18T15:47:01.103Z,51713.5
2019-03-18T15:48:01.246Z,51910.1
2019-03-18T15:49:01.094Z,51434.5
2019-03-18T15:50:01.095Z,50257.9
2019-03-18T15:51:01.094Z,48733.1
2019-03-18T15:52:10.276Z,47056.6
2019-03-18T15:53:01.251Z,45153.2
2019-03-18T15:54:01.099Z,43651.2
2019-03-18T15:55:01.098Z,42462.9
2019-03-18T15:56:01.099Z,41369.9
2019-03-18T15:57:01.155Z,40660.7
2019-03-18T15:58:01.249Z,40527.7
2019-03-18T15:59:01.095Z,40439.5
2019-03-18T16:00:01.125Z,40324.9
2019-03-18T16:01:01.095Z,39888.5
2019-03-18T16:02:06.103Z,39482.3
2019-03-18T16:03:01.258Z,39080.0
2019-03-18T16:04:01.095Z,38686.6
2019-03-18T16:05:01.107Z,38304.1
2019-03-18T16:06:01.100Z,38037.9
2019-03-18T16:07:01.129Z,38091.9
2019-03-18T16:08:01.663Z,38430.6
2019-03-18T16:09:01.105Z,38515.0
2019-03-18T16:10:01.107Z,38748.3
2019-03-18T16:11:01.114Z,39374.0
2019-03-18T16:12:01.107Z,39874.7
2019-03-18T16:13:01.253Z,39811.1
2019-03-18T16:14:01.105Z,39642.6
2019-03-18T16:15:01.135Z,39466.0
2019-03-18T16:16:01.107Z,39308.0
2019-03-18T16:17:02.145Z,39042.5
2019-03-18T16:18:01.216Z,38729.0
2019-03-18T16:19:01.104Z,38392.4
2019-03-18T16:20:02.350Z,37915.6
2019-03-18T16:21:01.102Z,37362.1
2019-03-18T16:22:06.109Z,36622.4
2019-03-18T16:23:01.256Z,35796.1
2019-03-18T16:24:01.106Z,35065.1
2019-03-18T16:25:01.103Z,34235.7
2019-03-18T16:27:01.063Z,32981.0
2019-03-18T16:28:01.232Z,31556.5
2019-03-18T16:29:01.086Z,30500.7
2019-03-18T16:30:03.795Z,29620.4
2019-03-18T16:31:06.097Z,28884.3
2019-03-18T16:32:10.676Z,28240.5
2019-03-18T16:33:01.276Z,27608.5
2019-03-18T16:34:01.088Z,26990.0
2019-03-18T16:35:01.097Z,26363.3
2019-03-18T16:36:06.102Z,25819.8
2019-03-18T16:37:01.096Z,25281.1
2019-03-18T16:38:01.244Z,24743.5
2019-03-18T16:39:01.100Z,24199.7
2019-03-18T16:40:01.094Z,23768.1
2019-03-18T16:41:06.109Z,23396.2
2019-03-18T16:42:01.162Z,23094.7
2019-03-18T16:43:01.250Z,22811.7
2019-03-18T16:44:01.106Z,22563.9
2019-03-18T16:45:01.098Z,22285.9
2019-03-18T16:46:01.116Z,21904.0
2019-03-18T16:47:01.091Z,21485.7
2019-03-18T16:48:01.247Z,21096.1
2019-03-18T16:49:01.105Z,20749.7
2019-03-18T16:50:02.181Z,20447.4
2019-03-18T16:51:01.121Z,20159.8
2019-03-18T16:52:01.109Z,19819.1
2019-03-18T16:53:01.251Z,19451.5
2019-03-18T16:54:01.112Z,19096.7
2019-03-18T16:55:01.146Z,18730.9
2019-03-18T16:56:01.142Z,18330.3
2019-03-18T16:58:01.245Z,17867.2
2019-03-18T16:59:01.077Z,17400.5
2019-03-18T17:00:01.103Z,16935.7
2019-03-18T17:01:01.093Z,16488.0
2019-03-18T17:02:01.092Z,16046.2
2019-03-18T17:03:01.303Z,15590.2
2019-03-18T17:04:01.097Z,15141.3
2019-03-18T17:05:01.096Z,14687.3
2019-03-18T17:06:01.762Z,14218.9
2019-03-18T17:07:01.099Z,13743.4
2019-03-18T17:08:01.246Z,13288.3
2019-03-18T17:10:01.092Z,12852.8
2019-03-18T17:11:01.059Z,12421.0
2019-03-18T17:12:01.088Z,11965.4
2019-03-18T17:13:01.108Z,11503.7
2019-03-18T17:14:01.253Z,11082.6
2019-03-18T17:15:01.061Z,10656.9
2019-03-18T17:16:01.099Z,10238.3
2019-03-18T17:17:01.104Z,9857.1
2019-03-18T17:18:01.094Z,9467.3
2019-03-18T17:19:01.314Z,9075.8
2019-03-18T17:20:01.098Z,8686.6
2019-03-18T17:21:01.100Z,8292.1
2019-03-18T17:22:01.074Z,7892.4
2019-03-18T17:23:01.095Z,7499.2
2019-03-18T17:24:01.237Z,7112.9
2019-03-18T17:25:01.096Z,6731.6
2019-03-18T17:26:01.095Z,6351.1
2019-03-18T17:27:01.063Z,5995.1
2019-03-18T17:28:01.102Z,5657.7
2019-03-18T17:29:01.241Z,5330.4
2019-03-18T17:30:01.096Z,5014.9
2019-03-18T17:31:01.064Z,4702.2
2019-03-18T17:32:01.102Z,4384.1
2019-03-18T17:33:01.135Z,4097.5
2019-03-18T17:34:01.347Z,3827.3
2019-03-18T17:35:01.143Z,3565.1
2019-03-18T17:36:03.666Z,3312.5
2019-03-18T17:37:01.102Z,3071.9
2019-03-18T17:38:01.109Z,2842.1
2019-03-18T17:39:01.317Z,2622.0
2019-03-18T17:41:01.166Z,2403.3
2019-03-18T17:42:01.088Z,2194.5
2019-03-18T17:43:01.095Z,1996.7
2019-03-18T17:44:01.200Z,1809.7
2019-03-18T17:45:01.365Z,1633.9
2019-03-18T17:46:06.109Z,1469.5
2019-03-18T17:47:01.098Z,1315.8
2019-03-18T17:48:01.095Z,1172.3
2019-03-18T17:49:01.107Z,1039.9
2019-03-18T17:50:02.118Z,918.0
2019-03-18T17:51:01.126Z,806.5
2019-03-18T17:52:01.095Z,704.6
2019-03-18T17:53:03.372Z,612.1
2019-03-18T17:54:01.101Z,528.5
2019-03-18T17:55:01.216Z,453.4
2019-03-18T17:56:01.091Z,394.5
2019-03-18T17:57:07.359Z,342.1
2019-03-18T17:58:01.095Z,295.7
2019-03-18T17:59:01.097Z,254.5
2019-03-18T18:00:01.244Z,218.4
2019-03-18T18:01:01.093Z,186.7
2019-03-18T18:02:01.122Z,159.1
2019-03-18T18:03:01.065Z,135.1
2019-03-18T18:04:01.100Z,114.3
2019-03-18T18:05:03.002Z,96.5
2019-03-18T18:06:01.973Z,81.1
2019-03-18T18:07:01.140Z,68.1
2019-03-18T18:08:01.093Z,57.1
2019-03-18T18:09:01.092Z,47.7
2019-03-18T18:10:01.272Z,39.8
2019-03-18T18:11:01.099Z,33.2
2019-03-18T18:12:01.121Z,27.7
2019-03-18T18:13:06.105Z,23.1
2019-03-18T18:14:01.095Z,19.3
2019-03-18T18:15:01.247Z,16.2
2019-03-18T18:16:01.097Z,13.6
2019-03-18T18:17:01.110Z,11.5
2019-03-18T18:18:01.204Z,9.7
2019-03-18T18:19:01.105Z,8.1
2019-03-18T18:20:01.248Z,6.9
2019-03-18T18:21:01.101Z,5.9
2019-03-18T18:22:01.104Z,5.0
2019-03-18T18:23:13.149Z,4.3
2019-03-18T18:24:01.110Z,3.7
2019-03-18T18:25:02.211Z,3.1
2019-03-18T18:26:01.108Z,2.7
2019-03-18T18:27:02.148Z,2.4
2019-03-18T18:28:01.103Z,2.1
2019-03-18T18:29:01.141Z,1.9
2019-03-18T18:30:01.326Z,1.7
2019-03-18T18:31:01.109Z,1.5
2019-03-18T18:32:01.105Z,1.4
2019-03-18T18:33:01.106Z,1.3
2019-03-18T18:34:06.084Z,1.2
2019-03-18T18:36:01.099Z,1.1
2019-03-18T18:38:06.103Z,1.0
2019-03-18T18:45:01.367Z,1.0
2019-03-18T18:48:01.113Z,0.9
2019-03-18T18:50:02.462Z,0.8
2019-03-18T19:00:01.448Z,0.8
2019-03-18T19:03:01.163Z,0.9
2019-03-18T19:07:01.319Z,0.8
2019-03-18T19:09:01.136Z,0.7
2019-03-18T19:11:01.066Z,0.6
2019-03-18T19:13:01.365Z,0.5
2019-03-18T19:15:01.066Z,0.5
2019-03-18T19:18:01.250Z,0.4
2019-03-18T19:19:01.103Z,0.3
2019-03-18T19:21:01.119Z,0.4
2019-03-18T19:22:01.104Z,0.5
2019-03-18T19:25:01.392Z,0.6
2019-03-18T19:26:06.110Z,0.7
2019-03-18T19:29:01.109Z,0.8
2019-03-18T19:30:01.256Z,0.8
2019-03-18T19:33:01.169Z,0.9
2019-03-18T19:35:01.285Z,1.0
2019-03-18T19:37:01.110Z,0.9
2019-03-18T19:39:01.106Z,0.8
2019-03-18T19:41:01.279Z,0.7
2019-03-18T19:45:01.162Z,0.7
2019-03-18T19:48:01.244Z,0.6
2019-03-18T19:50:01.094Z,0.5
2019-03-18T19:53:01.380Z,0.6
2019-03-18T19:54:01.096Z,0.7
2019-03-18T19:57:01.098Z,0.8
2019-03-18T20:00:01.240Z,0.7
2019-03-18T20:03:01.164Z,0.8
2019-03-18T20:06:01.266Z,0.7
2019-03-18T20:10:01.100Z,0.6
2019-03-18T20:11:01.250Z,0.5
2019-03-18T20:14:01.165Z,0.4
2019-03-18T20:15:01.102Z,0.5
2019-03-18T20:16:01.246Z,0.4
2019-03-18T20:20:06.109Z,0.5
2019-03-18T20:23:01.309Z,0.4
2019-03-18T20:24:03.174Z,0.5
2019-03-18T20:26:06.110Z,0.6
2019-03-18T20:29:01.258Z,0.7
2019-03-18T20:30:01.103Z,0.6
2019-03-18T20:31:06.108Z,0.7
2019-03-18T20:36:01.437Z,0.6
2019-03-18T20:37:01.108Z,0.7
2019-03-18T20:45:01.323Z,0.8
2019-03-18T20:49:06.442Z,0.9
2019-03-18T20:56:01.315Z,1.0
2019-03-18T21:00:01.104Z,1.0
2019-03-18T21:15:01.307Z,1.0
2019-03-18T21:30:01.322Z,1.0
2019-03-18T21:45:01.319Z,1.0
2019-03-18T22:00:01.379Z,1.0
2019-03-18T22:15:01.393Z,1.0
2019-03-18T22:30:01.389Z,1.0
2019-03-18T22:45:01.385Z,1.0
2019-03-18T23:00:01.267Z,1.0
2019-03-18T23:15:01.380Z,1.0
2019-03-18T23:30:01.305Z,1.0
2019-03-18T23:45:01.323Z,1.0
